createdAt,value
2019-02-19T00:00:29.301Z,63.29
2019-02-19T00:02:57.495Z,63.29
2019-02-19T00:05:25.715Z,63.35
2019-02-19T00:07:53.910Z,63.52
2019-02-19T00:10:22.406Z,63.56
2019-02-19T00:12:50.882Z,63.62
2019-02-19T00:15:19.420Z,63.71
2019-02-19T00:17:47.851Z,63.73
2019-02-19T00:20:16.061Z,63.86
2019-02-19T00:22:44.260Z,63.89
2019-02-19T00:25:12.572Z,63.97
2019-02-19T00:27:41.149Z,64.07
2019-02-19T00:30:09.347Z,64.15
2019-02-19T00:32:37.555Z,64.27
2019-02-19T00:35:06.528Z,64.33
2019-02-19T00:37:34.741Z,64.39
2019-02-19T00:40:03.246Z,64.42
2019-02-19T00:42:31.764Z,64.50
2019-02-19T00:44:59.923Z,64.54
2019-02-19T00:47:28.131Z,64.66
2019-02-19T00:49:56.327Z,64.60
2019-02-19T00:52:27.611Z,64.55
2019-02-19T00:54:55.794Z,64.55
2019-02-19T00:57:24.003Z,64.53
2019-02-19T00:59:52.201Z,64.59
2019-02-19T01:02:20.406Z,64.63
2019-02-19T01:04:48.602Z,64.73
2019-02-19T01:07:16.814Z,64.85
2019-02-19T01:09:45.023Z,64.99
2019-02-19T01:12:13.224Z,65.06
2019-02-19T01:14:41.681Z,65.15
2019-02-19T01:17:09.888Z,65.27
2019-02-19T01:19:38.091Z,65.36
2019-02-19T01:22:06.295Z,65.49
2019-02-19T01:24:34.497Z,65.56
2019-02-19T01:27:02.693Z,65.65
2019-02-19T01:29:30.910Z,65.73
2019-02-19T01:31:59.091Z,65.72
2019-02-19T01:34:27.299Z,65.80
2019-02-19T01:36:55.491Z,65.81
2019-02-19T01:39:23.717Z,65.85
2019-02-19T01:41:51.908Z,65.89
2019-02-19T01:44:20.114Z,65.99
2019-02-19T01:46:48.303Z,66.04
2019-02-19T01:49:16.505Z,65.99
2019-02-19T01:51:44.706Z,66.04
2019-02-19T01:54:12.919Z,66.12
2019-02-19T01:56:41.119Z,66.23
2019-02-19T01:59:09.686Z,66.33
2019-02-19T02:01:37.909Z,66.45
2019-02-19T02:04:06.119Z,66.55
2019-02-19T02:06:34.315Z,66.72
2019-02-19T02:09:02.780Z,66.86
2019-02-19T02:11:30.993Z,66.95
2019-02-19T02:13:59.186Z,67.04
2019-02-19T02:16:27.675Z,67.15
2019-02-19T02:18:55.872Z,67.19
2019-02-19T02:21:24.083Z,67.29
2019-02-19T02:23:52.326Z,67.36
2019-02-19T02:26:20.534Z,67.46
2019-02-19T02:28:49.047Z,67.44
2019-02-19T02:31:17.248Z,67.52
2019-02-19T02:33:45.689Z,67.60
2019-02-19T02:36:13.898Z,67.63
2019-02-19T02:38:42.105Z,67.65
2019-02-19T02:41:10.310Z,67.66
2019-02-19T02:43:38.508Z,67.58
2019-02-19T02:46:06.716Z,67.58
2019-02-19T02:48:34.910Z,67.53
2019-02-19T02:51:03.114Z,67.58
2019-02-19T02:53:31.308Z,67.45
2019-02-19T02:55:59.505Z,67.41
2019-02-19T02:58:27.721Z,67.34
2019-02-19T03:00:55.992Z,67.30
2019-02-19T03:03:24.214Z,67.31
2019-02-19T03:06:01.735Z,67.31
2019-02-19T03:08:29.938Z,67.41
2019-02-19T03:10:58.134Z,67.17
2019-02-19T03:13:26.331Z,67.36
2019-02-19T03:16:02.221Z,67.30
2019-02-19T03:18:24.463Z,67.37
2019-02-19T03:20:53.092Z,67.48
2019-02-19T03:23:21.296Z,67.81
2019-02-19T03:25:49.497Z,67.86
2019-02-19T03:28:17.714Z,68.07
2019-02-19T03:30:45.914Z,68.21
2019-02-19T03:33:14.126Z,68.26
2019-02-19T03:35:42.308Z,68.77
2019-02-19T03:38:10.525Z,68.84
2019-02-19T03:40:38.704Z,69.14
2019-02-19T03:43:07.174Z,69.41
2019-02-19T03:45:35.368Z,70.22
2019-02-19T03:48:03.562Z,70.14
2019-02-19T03:50:31.772Z,70.73
2019-02-19T03:52:59.965Z,70.58
2019-02-19T03:55:28.204Z,70.61
2019-02-19T03:57:56.366Z,70.60
2019-02-19T04:00:24.581Z,70.99
2019-02-19T04:02:52.784Z,71.38
2019-02-19T04:05:20.984Z,71.90
2019-02-19T04:07:49.178Z,71.84
2019-02-19T04:10:17.384Z,72.31
2019-02-19T04:12:45.881Z,72.64
2019-02-19T04:15:14.089Z,72.85
2019-02-19T04:17:42.283Z,72.99
2019-02-19T04:20:10.495Z,73.01
2019-02-19T04:22:38.715Z,73.59
2019-02-19T04:25:06.924Z,73.64
2019-02-19T04:27:35.449Z,74.40
2019-02-19T04:30:04.632Z,74.18
2019-02-19T04:32:32.833Z,74.83
2019-02-19T04:35:01.059Z,75.27
2019-02-19T04:37:30.083Z,75.33
2019-02-19T04:39:58.336Z,76.85
2019-02-19T04:42:26.544Z,76.63
2019-02-19T04:44:54.743Z,77.12
2019-02-19T04:47:22.954Z,77.02
2019-02-19T04:49:51.151Z,77.27
2019-02-19T04:52:19.356Z,77.94
2019-02-19T04:54:47.907Z,78.65
2019-02-19T04:57:16.119Z,78.88
2019-02-19T04:59:44.775Z,79.85
2019-02-19T05:02:12.981Z,80.36
2019-02-19T05:04:41.171Z,80.62
2019-02-19T05:07:09.389Z,80.72
2019-02-19T05:09:37.578Z,80.94
2019-02-19T05:12:06.084Z,81.28
2019-02-19T05:14:34.299Z,81.45
2019-02-19T05:17:02.512Z,81.59
2019-02-19T05:19:30.712Z,81.88
2019-02-19T05:21:58.911Z,82.06
2019-02-19T05:24:27.448Z,82.12
2019-02-19T05:26:55.656Z,82.67
2019-02-19T05:29:23.870Z,82.59
2019-02-19T05:31:52.072Z,82.88
2019-02-19T05:34:20.636Z,83.37
2019-02-19T05:36:48.840Z,83.48
2019-02-19T05:39:17.029Z,83.23
2019-02-19T05:41:45.253Z,83.40
2019-02-19T05:44:13.507Z,83.18
2019-02-19T05:46:49.627Z,83.66
2019-02-19T05:49:11.642Z,83.85
2019-02-19T05:51:39.842Z,83.70
2019-02-19T05:54:08.050Z,83.57
2019-02-19T05:56:36.565Z,83.67
2019-02-19T05:59:04.765Z,83.60
2019-02-19T06:01:33.340Z,83.68
2019-02-19T06:04:01.532Z,83.56
2019-02-19T06:06:30.094Z,83.53
2019-02-19T06:08:58.304Z,83.45
2019-02-19T06:11:26.506Z,83.51
2019-02-19T06:13:54.717Z,83.51
2019-02-19T06:16:23.289Z,83.40
2019-02-19T06:18:51.482Z,83.40
2019-02-19T06:21:19.698Z,83.37
2019-02-19T06:23:47.892Z,83.47
2019-02-19T06:26:16.104Z,83.37
2019-02-19T06:28:44.297Z,83.39
2019-02-19T06:31:12.524Z,83.66
2019-02-19T06:33:40.739Z,83.69
2019-02-19T06:36:08.962Z,83.67
2019-02-19T06:38:37.145Z,83.73
2019-02-19T06:41:05.651Z,83.85
2019-02-19T06:43:33.853Z,83.81
2019-02-19T06:46:02.049Z,83.92
2019-02-19T06:48:30.251Z,83.73
2019-02-19T06:50:58.479Z,83.92
2019-02-19T06:53:27.023Z,83.88
2019-02-19T06:55:55.230Z,83.97
2019-02-19T06:58:23.426Z,84.05
2019-02-19T07:00:51.635Z,84.36
2019-02-19T07:03:21.727Z,84.14
2019-02-19T07:05:49.933Z,84.17
2019-02-19T07:08:18.430Z,84.10
2019-02-19T07:10:46.633Z,84.03
2019-02-19T07:13:14.843Z,83.90
2019-02-19T07:15:43.055Z,83.88
2019-02-19T07:18:11.256Z,83.80
2019-02-19T07:20:39.452Z,83.71
2019-02-19T07:23:07.667Z,83.67
2019-02-19T07:25:35.876Z,83.51
2019-02-19T07:28:04.439Z,83.50
2019-02-19T07:30:32.642Z,83.35
2019-02-19T07:33:01.183Z,83.17
2019-02-19T07:35:29.386Z,82.98
2019-02-19T07:37:57.616Z,82.74
2019-02-19T07:40:26.119Z,82.49
2019-02-19T07:42:54.324Z,82.27
2019-02-19T07:45:22.514Z,82.10
2019-02-19T07:47:50.717Z,81.92
2019-02-19T07:50:19.221Z,81.87
2019-02-19T07:52:47.449Z,81.71
2019-02-19T07:55:15.658Z,81.64
2019-02-19T07:57:43.873Z,81.67
2019-02-19T08:00:13.628Z,81.52
2019-02-19T08:02:41.865Z,81.42
2019-02-19T08:05:10.418Z,81.39
2019-02-19T08:07:38.620Z,81.17
2019-02-19T08:10:09.825Z,81.22
2019-02-19T08:12:38.320Z,80.89
2019-02-19T08:15:08.993Z,80.73
2019-02-19T08:17:37.200Z,80.68
2019-02-19T08:20:15.478Z,80.54
2019-02-19T08:22:36.955Z,80.32
2019-02-19T08:25:05.844Z,80.18
2019-02-19T08:27:34.351Z,80.06
2019-02-19T08:30:02.558Z,79.93
2019-02-19T08:32:30.749Z,80.05
2019-02-19T08:34:59.055Z,80.05
2019-02-19T08:37:27.270Z,80.01
2019-02-19T08:39:55.716Z,79.76
2019-02-19T08:42:23.919Z,79.71
2019-02-19T08:44:52.134Z,79.45
2019-02-19T08:47:20.324Z,79.40
2019-02-19T08:49:48.521Z,79.29
2019-02-19T08:52:18.656Z,79.31
2019-02-19T08:54:46.926Z,79.04
2019-02-19T08:57:15.152Z,78.97
2019-02-19T08:59:43.333Z,78.92
2019-02-19T09:02:11.580Z,78.84
2019-02-19T09:04:40.118Z,78.70
2019-02-19T09:07:08.706Z,78.55
2019-02-19T09:09:36.904Z,78.29
2019-02-19T09:12:05.413Z,77.91
2019-02-19T09:14:33.609Z,77.70
2019-02-19T09:17:02.173Z,77.26
2019-02-19T09:19:30.370Z,76.98
2019-02-19T09:21:58.578Z,76.67
2019-02-19T09:24:26.779Z,76.48
2019-02-19T09:26:54.997Z,76.26
2019-02-19T09:29:23.200Z,75.80
2019-02-19T09:31:51.675Z,75.54
2019-02-19T09:34:19.888Z,75.25
2019-02-19T09:36:48.096Z,75.00
2019-02-19T09:39:16.300Z,74.55
2019-02-19T09:41:44.495Z,74.21
2019-02-19T09:44:12.704Z,74.35
2019-02-19T09:46:40.903Z,74.08
2019-02-19T09:49:09.468Z,73.76
2019-02-19T09:51:37.678Z,73.64
2019-02-19T09:54:05.888Z,73.28
2019-02-19T09:56:34.159Z,73.06
2019-02-19T09:59:02.363Z,73.08
2019-02-19T10:01:30.582Z,73.05
2019-02-19T10:03:58.781Z,73.08
2019-02-19T10:06:26.995Z,73.04
2019-02-19T10:08:55.187Z,73.00
2019-02-19T10:11:23.749Z,72.50
2019-02-19T10:13:51.946Z,72.16
2019-02-19T10:16:20.143Z,72.21
2019-02-19T10:18:48.361Z,72.05
2019-02-19T10:21:16.553Z,72.02
2019-02-19T10:23:44.762Z,71.97
2019-02-19T10:26:12.970Z,71.28
2019-02-19T10:28:41.181Z,71.35
2019-02-19T10:31:09.378Z,71.03
2019-02-19T10:33:37.607Z,70.97
2019-02-19T10:36:05.796Z,71.04
2019-02-19T10:38:34.021Z,70.87
2019-02-19T10:41:02.214Z,70.55
2019-02-19T10:43:30.714Z,70.44
2019-02-19T10:45:58.920Z,70.43
2019-02-19T10:48:27.491Z,70.92
2019-02-19T10:50:55.954Z,71.35
2019-02-19T10:53:24.147Z,71.36
2019-02-19T10:55:52.361Z,71.26
2019-02-19T10:58:23.051Z,71.03
2019-02-19T11:00:50.513Z,71.03
2019-02-19T11:03:18.995Z,70.15
2019-02-19T11:05:47.219Z,69.47
2019-02-19T11:08:15.401Z,69.31
2019-02-19T11:10:43.614Z,69.03
2019-02-19T11:13:11.814Z,68.67
2019-02-19T11:15:40.020Z,68.39
2019-02-19T11:18:08.217Z,68.27
2019-02-19T11:20:36.709Z,68.31
2019-02-19T11:23:05.290Z,68.72
2019-02-19T11:25:33.505Z,68.94
2019-02-19T11:28:01.703Z,69.24
2019-02-19T11:30:29.900Z,69.10
2019-02-19T11:32:58.394Z,69.16
2019-02-19T11:35:26.895Z,69.22
2019-02-19T11:37:55.372Z,69.19
2019-02-19T11:40:23.844Z,69.13
2019-02-19T11:42:52.083Z,69.13
2019-02-19T11:45:20.607Z,69.13
2019-02-19T11:47:49.095Z,69.35
2019-02-19T11:50:17.308Z,69.60
2019-02-19T11:52:45.502Z,70.03
2019-02-19T11:55:15.954Z,70.38
2019-02-19T11:57:44.146Z,70.87
2019-02-19T12:00:16.086Z,70.88
2019-02-19T12:02:44.262Z,70.89
2019-02-19T12:05:12.463Z,70.96
2019-02-19T12:07:40.692Z,71.27
2019-02-19T12:10:09.503Z,71.45
2019-02-19T12:12:37.681Z,71.50
2019-02-19T12:15:08.679Z,71.45
2019-02-19T12:17:36.911Z,71.77
2019-02-19T12:20:06.968Z,71.74
2019-02-19T12:22:35.173Z,71.73
2019-02-19T12:25:03.447Z,71.93
2019-02-19T12:27:31.642Z,72.14
2019-02-19T12:29:59.869Z,72.32
2019-02-19T12:32:28.398Z,72.51
2019-02-19T12:34:56.610Z,72.64
2019-02-19T12:37:24.816Z,72.78
2019-02-19T12:39:53.016Z,72.50
2019-02-19T12:42:21.219Z,72.16
2019-02-19T12:44:49.416Z,71.91
2019-02-19T12:47:17.955Z,72.04
2019-02-19T12:49:46.174Z,72.17
2019-02-19T12:52:14.730Z,72.21
2019-02-19T12:54:42.919Z,72.46
2019-02-19T12:57:11.122Z,72.49
2019-02-19T12:59:39.330Z,73.08
2019-02-19T13:02:07.526Z,73.31
2019-02-19T13:04:35.754Z,74.25
2019-02-19T13:07:03.936Z,74.82
2019-02-19T13:09:32.153Z,75.72
2019-02-19T13:12:00.355Z,76.91
2019-02-19T13:14:28.554Z,77.06
2019-02-19T13:16:57.093Z,76.83
2019-02-19T13:19:25.298Z,77.48
2019-02-19T13:21:53.515Z,78.13
2019-02-19T13:24:21.728Z,78.52
2019-02-19T13:26:51.097Z,79.27
2019-02-19T13:29:19.335Z,79.20
2019-02-19T13:31:47.527Z,79.50
2019-02-19T13:34:15.736Z,79.59
2019-02-19T13:36:43.932Z,79.78
2019-02-19T13:39:12.494Z,79.92
2019-02-19T13:41:40.954Z,80.42
2019-02-19T13:44:09.154Z,80.67
2019-02-19T13:46:37.377Z,80.38
2019-02-19T13:49:11.982Z,80.42
2019-02-19T13:51:36.118Z,80.56
2019-02-19T13:54:05.963Z,80.56
2019-02-19T13:56:34.192Z,80.60
2019-02-19T13:59:02.401Z,80.65
2019-02-19T14:01:30.608Z,80.48
2019-02-19T14:03:58.815Z,80.48
2019-02-19T14:06:27.309Z,80.48
2019-02-19T14:08:55.518Z,80.65
2019-02-19T14:11:24.062Z,80.61
2019-02-19T14:13:54.188Z,80.92
2019-02-19T14:16:26.967Z,81.05
2019-02-19T14:18:56.824Z,81.70
2019-02-19T14:21:29.463Z,82.22
2019-02-19T14:23:59.310Z,82.14
2019-02-19T14:26:45.219Z,82.35
2019-02-19T14:29:30.353Z,82.90
2019-02-19T14:32:03.118Z,82.88
2019-02-19T14:34:48.293Z,83.15
2019-02-19T14:37:27.101Z,83.20
2019-02-19T14:40:10.199Z,83.46
2019-02-19T14:42:46.005Z,83.88
2019-02-19T14:45:18.798Z,83.95
2019-02-19T14:48:04.489Z,83.91
2019-02-19T14:50:37.448Z,84.04
2019-02-19T14:53:19.543Z,83.88
2019-02-19T14:56:05.624Z,84.05
2019-02-19T14:58:51.306Z,84.44
2019-02-19T15:01:21.133Z,84.65
2019-02-19T15:04:07.238Z,85.02
2019-02-19T15:06:46.570Z,84.81
2019-02-19T15:09:25.393Z,84.07
2019-02-19T15:11:55.231Z,84.06
2019-02-19T15:14:30.846Z,84.52
2019-02-19T15:17:01.974Z,84.47
2019-02-19T15:19:47.981Z,83.95
2019-02-19T15:22:17.838Z,83.46
2019-02-19T15:25:05.474Z,83.77
2019-02-19T15:27:35.316Z,84.13
2019-02-19T15:30:14.677Z,84.58
2019-02-19T15:32:44.487Z,84.58
2019-02-19T15:35:41.152Z,85.05
2019-02-19T15:38:20.255Z,85.29
2019-02-19T15:40:50.434Z,85.57
2019-02-19T15:43:32.611Z,85.80
2019-02-19T15:46:11.101Z,85.97
2019-02-19T15:48:59.472Z,86.18
2019-02-19T15:51:34.995Z,85.84
2019-02-19T15:54:11.077Z,85.95
2019-02-19T15:56:55.715Z,86.20
2019-02-19T15:59:34.289Z,86.24
2019-02-19T16:02:23.160Z,86.65
2019-02-19T16:05:11.383Z,86.41
2019-02-19T16:07:47.628Z,86.67
2019-02-19T16:10:26.097Z,86.59
2019-02-19T16:13:02.593Z,86.64
2019-02-19T16:15:32.391Z,86.51
2019-02-19T16:18:18.509Z,86.40
2019-02-19T16:21:04.697Z,86.14
2019-02-19T16:23:34.529Z,85.97
2019-02-19T16:26:05.210Z,85.80
2019-02-19T16:28:43.749Z,85.42
2019-02-19T16:31:19.286Z,85.52
2019-02-19T16:33:49.447Z,85.46
2019-02-19T16:36:28.781Z,85.29
2019-02-19T16:39:01.337Z,85.15
2019-02-19T16:41:31.187Z,84.87
2019-02-19T16:44:04.090Z,84.70
2019-02-19T16:46:45.813Z,84.82
2019-02-19T16:49:15.682Z,84.86
2019-02-19T16:51:48.727Z,84.75
2019-02-19T16:54:18.865Z,84.82
2019-02-19T16:56:48.702Z,84.64
2019-02-19T16:59:34.811Z,84.72
2019-02-19T17:02:15.341Z,84.77
2019-02-19T17:04:53.923Z,84.81
2019-02-19T17:07:32.232Z,84.73
2019-02-19T17:10:20.459Z,84.93
2019-02-19T17:12:53.217Z,84.95
2019-02-19T17:15:39.403Z,85.08
2019-02-19T17:18:09.252Z,85.08
2019-02-19T17:20:39.131Z,85.08
2019-02-19T17:23:08.983Z,85.01
2019-02-19T17:25:41.499Z,84.99
2019-02-19T17:28:14.090Z,84.85
2019-02-19T17:30:43.945Z,84.76
2019-02-19T17:33:23.033Z,84.84
2019-02-19T17:35:53.296Z,84.80
2019-02-19T17:38:31.958Z,84.78
2019-02-19T17:41:09.097Z,84.67
2019-02-19T17:43:41.633Z,84.57
2019-02-19T17:46:14.543Z,84.53
2019-02-19T17:48:44.597Z,84.28
2019-02-19T17:51:14.764Z,84.27
2019-02-19T17:53:47.866Z,84.24
2019-02-19T17:56:21.102Z,84.42
2019-02-19T17:59:00.049Z,84.20
2019-02-19T18:01:40.858Z,84.28
2019-02-19T18:04:11.148Z,84.38
2019-02-19T18:06:47.153Z,84.52
2019-02-19T18:09:19.986Z,84.00
2019-02-19T18:11:55.726Z,83.99
2019-02-19T18:14:25.544Z,83.88
2019-02-19T18:17:11.757Z,83.83
2019-02-19T18:19:40.248Z,83.79
2019-02-19T18:22:08.484Z,83.81
2019-02-19T18:24:36.684Z,83.96
2019-02-19T18:27:04.982Z,84.04
2019-02-19T18:29:33.149Z,84.38
2019-02-19T18:32:01.628Z,84.18
2019-02-19T18:34:30.128Z,84.25
2019-02-19T18:36:58.332Z,84.19
2019-02-19T18:39:26.536Z,84.25
2019-02-19T18:41:54.740Z,84.19
2019-02-19T18:44:22.951Z,84.08
2019-02-19T18:46:51.151Z,84.06
2019-02-19T18:49:19.407Z,83.98
2019-02-19T18:51:47.995Z,83.82
2019-02-19T18:54:16.186Z,83.82
2019-02-19T18:56:51.328Z,83.76
2019-02-19T18:59:15.869Z,83.71
2019-02-19T19:01:43.997Z,83.53
2019-02-19T19:04:12.357Z,83.55
2019-02-19T19:06:42.890Z,83.47
2019-02-19T19:09:11.099Z,83.62
2019-02-19T19:11:42.053Z,83.62
2019-02-19T19:14:10.371Z,83.66
2019-02-19T19:16:38.591Z,83.67
2019-02-19T19:19:07.187Z,83.53
2019-02-19T19:21:35.388Z,83.49
2019-02-19T19:24:03.584Z,83.33
2019-02-19T19:29:07.174Z,82.95
2019-02-19T19:31:35.729Z,82.93
2019-02-19T19:34:07.836Z,82.84
2019-02-19T19:36:35.438Z,82.78
2019-02-19T19:39:04.808Z,82.65
2019-02-19T19:41:33.021Z,82.65
2019-02-19T19:44:01.214Z,82.75
2019-02-19T19:46:29.441Z,82.84
2019-02-19T19:48:57.644Z,82.85
2019-02-19T19:51:25.852Z,82.82
2019-02-19T19:53:56.604Z,82.93
2019-02-19T19:56:24.820Z,82.92
2019-02-19T19:58:53.431Z,82.96
2019-02-19T20:01:21.875Z,82.95
2019-02-19T20:03:50.040Z,82.92
2019-02-19T20:06:20.199Z,82.72
2019-02-19T20:08:48.414Z,82.53
2019-02-19T20:11:39.186Z,82.36
2019-02-19T20:14:00.064Z,82.37
2019-02-19T20:16:32.678Z,82.39
2019-02-19T20:19:02.504Z,82.42
2019-02-19T20:21:33.748Z,82.44
2019-02-19T20:24:04.862Z,82.40
2019-02-19T20:26:34.700Z,82.37
2019-02-19T20:29:11.251Z,82.38
2019-02-19T20:31:39.780Z,82.32
2019-02-19T20:34:12.299Z,82.34
2019-02-19T20:36:50.082Z,82.17
2019-02-19T20:39:15.542Z,82.06
2019-02-19T20:41:43.732Z,81.60
2019-02-19T20:44:16.089Z,81.61
2019-02-19T20:46:53.587Z,81.50
2019-02-19T20:49:19.060Z,81.44
2019-02-19T20:51:47.323Z,81.51
2019-02-19T20:54:28.379Z,81.53
2019-02-19T20:56:58.179Z,81.52
2019-02-19T20:59:26.703Z,81.52
2019-02-19T21:01:54.969Z,81.50
2019-02-19T21:04:23.180Z,81.56
2019-02-19T21:06:51.411Z,81.55
2019-02-19T21:09:19.607Z,81.54
2019-02-19T21:11:50.940Z,81.60
2019-02-19T21:14:19.136Z,81.73
2019-02-19T21:16:47.415Z,81.83
2019-02-19T21:19:15.669Z,82.00
2019-02-19T21:21:45.171Z,82.07
2019-02-19T21:24:13.532Z,81.98
2019-02-19T21:26:42.045Z,82.09
2019-02-19T21:29:10.250Z,82.16
2019-02-19T21:31:40.287Z,82.16
2019-02-19T21:34:08.368Z,82.12
2019-02-19T21:36:36.566Z,82.28
2019-02-19T21:39:05.567Z,82.16
2019-02-19T21:41:33.776Z,82.27
2019-02-19T21:44:02.037Z,82.21
2019-02-19T21:46:31.882Z,82.32
2019-02-19T21:49:00.071Z,82.24
2019-02-19T21:51:28.289Z,82.57
2019-02-19T21:53:56.495Z,82.35
2019-02-19T21:56:24.689Z,82.52
2019-02-19T21:58:52.882Z,82.47
2019-02-19T22:01:21.103Z,82.69
2019-02-19T22:03:49.312Z,82.57
2019-02-19T22:06:17.525Z,82.51
2019-02-19T22:08:45.717Z,82.48
2019-02-19T22:11:13.914Z,82.41
2019-02-19T22:13:42.137Z,82.43
2019-02-19T22:16:10.331Z,82.47
2019-02-19T22:18:38.575Z,82.40
2019-02-19T22:21:23.393Z,82.43
2019-02-19T22:23:51.652Z,82.44
2019-02-19T22:26:19.863Z,82.46
2019-02-19T22:28:48.437Z,82.41
2019-02-19T22:31:16.612Z,82.43
2019-02-19T22:33:44.828Z,82.30
2019-02-19T22:36:13.019Z,82.23
2019-02-19T22:38:41.656Z,82.05
2019-02-19T22:41:09.848Z,81.97
2019-02-19T22:43:38.090Z,81.94
2019-02-19T22:46:06.289Z,81.89
2019-02-19T22:48:34.475Z,81.93
2019-02-19T22:51:02.691Z,81.88
2019-02-19T22:53:48.905Z,81.94
2019-02-19T22:56:19.114Z,81.95
2019-02-19T22:58:47.587Z,81.92
2019-02-19T23:01:17.425Z,81.92
2019-02-19T23:03:45.614Z,81.96
2019-02-19T23:06:13.827Z,81.96
2019-02-19T23:08:42.025Z,82.07
2019-02-19T23:11:10.235Z,82.00
2019-02-19T23:13:38.625Z,82.00
2019-02-19T23:16:06.923Z,81.98
2019-02-19T23:18:35.449Z,82.04
2019-02-19T23:21:03.662Z,82.05
2019-02-19T23:23:32.334Z,82.05
2019-02-19T23:26:09.586Z,82.04
2019-02-19T23:28:40.178Z,82.01
2019-02-19T23:31:08.117Z,82.02
2019-02-19T23:33:36.311Z,81.91
2019-02-19T23:36:09.147Z,81.91
2019-02-19T23:38:37.634Z,81.91
2019-02-19T23:41:07.113Z,81.97
2019-02-19T23:43:35.728Z,82.01
2019-02-19T23:46:03.936Z,82.05
2019-02-19T23:48:32.133Z,82.04
2019-02-19T23:51:00.354Z,82.08
2019-02-19T23:53:28.547Z,82.16
2019-02-19T23:55:56.738Z,82.19
2019-02-19T23:58:25.277Z,82.14
